createdAt,value
2019-02-16T00:01:19.908Z,2.77
2019-02-16T00:03:50.712Z,3.97
2019-02-16T00:06:21.551Z,4.27
2019-02-16T00:08:52.381Z,3.87
2019-02-16T00:11:22.828Z,5.10
2019-02-16T00:13:53.451Z,4.27
2019-02-16T00:16:23.880Z,3.10
2019-02-16T00:18:54.368Z,2.60
2019-02-16T00:21:24.809Z,3.87
2019-02-16T00:23:55.244Z,3.43
2019-02-16T00:26:26.101Z,3.00
2019-02-16T00:28:56.549Z,2.73
2019-02-16T00:31:27.033Z,3.27
2019-02-16T00:33:57.486Z,3.63
2019-02-16T00:36:27.941Z,3.40
2019-02-16T00:38:58.777Z,2.50
2019-02-16T00:41:29.208Z,3.37
2019-02-16T00:43:59.681Z,3.63
2019-02-16T00:46:30.437Z,4.00
2019-02-16T00:49:01.233Z,3.63
2019-02-16T00:51:32.357Z,4.47
2019-02-16T00:54:02.796Z,3.27
2019-02-16T00:56:33.270Z,2.53
2019-02-16T00:59:03.700Z,2.43
2019-02-16T01:01:34.140Z,4.13
2019-02-16T01:04:04.621Z,2.80
2019-02-16T01:06:35.193Z,2.37
2019-02-16T01:09:06.909Z,4.57
2019-02-16T01:11:37.752Z,3.67
2019-02-16T01:14:08.195Z,3.27
2019-02-16T01:16:38.624Z,4.47
2019-02-16T01:19:09.915Z,3.07
2019-02-16T01:21:40.649Z,3.67
2019-02-16T01:24:11.084Z,2.57
2019-02-16T01:26:41.560Z,2.77
2019-02-16T01:29:12.064Z,3.33
2019-02-16T01:31:42.494Z,2.70
2019-02-16T01:34:13.261Z,2.43
2019-02-16T01:36:44.080Z,3.90
2019-02-16T01:39:14.538Z,3.37
2019-02-16T01:41:45.013Z,3.47
2019-02-16T01:44:15.445Z,4.33
2019-02-16T01:46:45.889Z,2.63
2019-02-16T01:49:16.365Z,3.73
2019-02-16T01:51:46.802Z,5.93
2019-02-16T01:54:17.237Z,3.40
2019-02-16T01:56:48.154Z,5.80
2019-02-16T01:59:18.864Z,4.27
2019-02-16T02:01:49.298Z,4.03
2019-02-16T02:04:19.773Z,3.07
2019-02-16T02:06:50.310Z,4.60
2019-02-16T02:09:20.823Z,3.13
2019-02-16T02:11:52.109Z,3.43
2019-02-16T02:14:22.539Z,4.20
2019-02-16T02:16:53.411Z,4.17
2019-02-16T02:19:24.305Z,3.77
2019-02-16T02:21:54.745Z,4.13
2019-02-16T02:24:25.552Z,3.20
2019-02-16T02:26:56.035Z,5.47
2019-02-16T02:29:26.856Z,3.93
2019-02-16T02:31:57.295Z,3.57
2019-02-16T02:34:27.769Z,3.60
2019-02-16T02:36:58.593Z,2.73
2019-02-16T02:39:29.062Z,4.27
2019-02-16T02:42:00.520Z,4.47
2019-02-16T02:44:31.312Z,5.37
2019-02-16T02:47:01.746Z,4.47
2019-02-16T02:49:32.222Z,5.27
2019-02-16T02:52:02.667Z,6.90
2019-02-16T02:54:33.102Z,4.30
2019-02-16T02:57:03.614Z,6.03
2019-02-16T02:59:34.115Z,4.20
2019-02-16T03:02:04.720Z,4.27
2019-02-16T03:04:35.194Z,4.77
2019-02-16T03:07:05.624Z,3.57
2019-02-16T03:09:36.060Z,6.77
2019-02-16T03:12:07.015Z,5.20
2019-02-16T03:14:37.441Z,4.30
2019-02-16T03:17:07.881Z,4.70
2019-02-16T03:19:38.611Z,5.37
2019-02-16T03:22:09.042Z,4.33
2019-02-16T03:24:39.495Z,4.97
2019-02-16T03:27:30.382Z,3.60
2019-02-16T03:30:34.620Z,3.50
2019-02-16T03:33:42.030Z,5.80
2019-02-16T03:37:15.213Z,5.47
2019-02-16T03:39:47.372Z,6.37
2019-02-16T03:42:17.801Z,4.80
2019-02-16T03:44:48.540Z,4.33
2019-02-16T03:47:19.109Z,3.90
2019-02-16T03:49:49.546Z,5.07
2019-02-16T03:52:21.052Z,4.67
2019-02-16T03:54:51.858Z,5.20
2019-02-16T03:57:22.289Z,4.67
2019-02-16T03:59:53.073Z,6.37
2019-02-16T04:02:24.116Z,5.00
2019-02-16T04:04:54.889Z,6.53
2019-02-16T04:07:25.688Z,4.23
2019-02-16T04:09:56.840Z,5.33
2019-02-16T04:12:27.272Z,4.27
2019-02-16T04:14:57.724Z,4.23
2019-02-16T04:17:28.194Z,4.57
2019-02-16T04:19:58.623Z,4.43
2019-02-16T04:22:29.064Z,5.17
2019-02-16T04:24:59.927Z,3.33
2019-02-16T04:27:30.364Z,4.27
2019-02-16T04:30:00.789Z,5.80
2019-02-16T04:32:31.272Z,4.97
2019-02-16T04:35:02.493Z,3.73
2019-02-16T04:37:33.955Z,4.40
2019-02-16T04:40:04.457Z,4.17
2019-02-16T04:42:34.895Z,3.87
2019-02-16T04:45:05.617Z,4.67
2019-02-16T04:47:36.050Z,3.73
2019-02-16T04:50:06.989Z,7.93
2019-02-16T04:52:37.505Z,3.60
2019-02-16T04:55:08.624Z,4.00
2019-02-16T04:57:39.049Z,4.07
2019-02-16T05:00:10.438Z,6.47
2019-02-16T05:02:41.236Z,8.43
2019-02-16T05:05:12.029Z,5.73
2019-02-16T05:07:42.867Z,4.97
2019-02-16T05:10:13.599Z,5.80
2019-02-16T05:12:44.193Z,5.37
2019-02-16T05:15:15.041Z,4.40
2019-02-16T05:17:45.847Z,3.90
2019-02-16T05:20:16.281Z,5.10
2019-02-16T05:22:47.315Z,3.27
2019-02-16T05:25:17.865Z,5.77
2019-02-16T05:27:48.657Z,5.30
2019-02-16T05:30:19.127Z,4.27
2019-02-16T05:32:49.852Z,3.90
2019-02-16T05:35:20.299Z,4.50
2019-02-16T05:37:51.171Z,3.87
2019-02-16T05:40:21.608Z,6.17
2019-02-16T05:42:52.067Z,6.90
2019-02-16T05:45:22.575Z,5.43
2019-02-16T05:47:53.320Z,4.03
2019-02-16T05:50:23.755Z,4.00
2019-02-16T05:52:54.779Z,3.87
2019-02-16T05:55:25.248Z,4.87
2019-02-16T05:57:55.683Z,4.33
2019-02-16T06:00:28.532Z,4.73
2019-02-16T06:02:59.021Z,3.90
2019-02-16T06:05:29.488Z,6.17
2019-02-16T06:07:59.929Z,4.03
2019-02-16T06:10:30.364Z,5.93
2019-02-16T06:13:00.829Z,4.57
2019-02-16T06:15:31.940Z,3.77
2019-02-16T06:18:02.825Z,5.87
2019-02-16T06:20:33.270Z,4.00
2019-02-16T06:23:04.856Z,6.07
2019-02-16T06:25:35.682Z,4.07
2019-02-16T06:28:06.130Z,4.47
2019-02-16T06:30:36.632Z,5.23
2019-02-16T06:33:07.711Z,4.10
2019-02-16T06:36:00.170Z,5.20
2019-02-16T06:38:30.777Z,2.93
2019-02-16T06:41:01.536Z,3.53
2019-02-16T06:43:32.661Z,5.40
2019-02-16T06:46:03.393Z,3.67
2019-02-16T06:48:33.867Z,4.50
2019-02-16T06:51:04.702Z,4.10
2019-02-16T06:53:35.129Z,4.43
2019-02-16T06:56:12.945Z,4.30
2019-02-16T06:58:43.386Z,4.97
2019-02-16T07:01:13.845Z,4.30
2019-02-16T07:03:44.576Z,5.27
2019-02-16T07:06:15.097Z,3.50
2019-02-16T07:08:45.530Z,4.23
2019-02-16T07:11:15.966Z,4.37
2019-02-16T07:13:46.459Z,3.30
2019-02-16T07:16:27.430Z,4.60
2019-02-16T07:19:04.527Z,3.90
2019-02-16T07:21:34.987Z,4.47
2019-02-16T07:24:05.475Z,2.87
2019-02-16T07:26:35.934Z,4.60
2019-02-16T07:29:06.413Z,3.80
2019-02-16T07:31:36.894Z,5.57
2019-02-16T07:34:07.324Z,3.23
2019-02-16T07:36:37.843Z,4.97
2019-02-16T07:39:09.848Z,3.43
2019-02-16T07:41:41.324Z,3.33
2019-02-16T07:44:36.896Z,4.13
2019-02-16T07:47:25.450Z,4.80
2019-02-16T07:50:04.537Z,3.63
2019-02-16T07:52:52.640Z,5.40
2019-02-16T07:55:29.135Z,5.40
2019-02-16T07:58:13.773Z,4.83
2019-02-16T08:01:01.522Z,3.87
2019-02-16T08:03:41.600Z,4.03
2019-02-16T08:06:33.866Z,8.03
2019-02-16T08:09:15.155Z,3.83
2019-02-16T08:12:10.828Z,3.30
2019-02-16T08:15:00.329Z,3.73
2019-02-16T08:17:55.702Z,3.87
2019-02-16T08:20:37.486Z,4.60
2019-02-16T08:23:15.632Z,4.00
2019-02-16T08:25:53.573Z,4.10
2019-02-16T08:28:39.556Z,3.13
2019-02-16T08:31:28.942Z,5.80
2019-02-16T08:34:21.664Z,6.33
2019-02-16T08:37:01.894Z,3.53
2019-02-16T08:39:57.053Z,11.03
2019-02-16T08:42:43.377Z,3.63
2019-02-16T08:45:31.596Z,4.33
2019-02-16T08:48:08.523Z,4.17
2019-02-16T08:50:56.188Z,3.83
2019-02-16T08:53:51.934Z,2.90
2019-02-16T08:56:56.421Z,5.03
2019-02-16T08:59:47.125Z,5.13
2019-02-16T09:02:40.062Z,4.27
2019-02-16T09:05:22.072Z,3.30
2019-02-16T09:07:58.707Z,4.40
2019-02-16T09:10:47.263Z,4.73
2019-02-16T09:13:28.623Z,4.23
2019-02-16T09:16:08.922Z,5.23
2019-02-16T09:19:10.716Z,4.87
2019-02-16T09:21:51.513Z,3.87
2019-02-16T09:24:45.971Z,6.47
2019-02-16T09:27:51.142Z,3.60
2019-02-16T09:30:34.010Z,4.87
2019-02-16T09:33:12.359Z,3.50
2019-02-16T09:35:48.577Z,4.23
2019-02-16T09:38:56.706Z,9.13
2019-02-16T09:41:35.079Z,5.47
2019-02-16T09:44:30.285Z,7.77
2019-02-16T09:47:18.227Z,6.40
2019-02-16T09:50:03.114Z,5.13
2019-02-16T09:52:52.465Z,3.93
2019-02-16T09:55:39.065Z,5.50
2019-02-16T09:58:27.372Z,5.00
2019-02-16T10:01:19.933Z,7.17
2019-02-16T10:04:10.378Z,8.53
2019-02-16T10:07:06.334Z,6.00
2019-02-16T10:09:58.013Z,6.67
2019-02-16T10:12:50.460Z,5.60
2019-02-16T10:15:42.972Z,4.70
2019-02-16T10:18:42.503Z,4.93
2019-02-16T10:21:31.866Z,5.17
2019-02-16T10:24:30.029Z,4.03
2019-02-16T10:27:15.397Z,5.73
2019-02-16T10:30:16.987Z,4.80
2019-02-16T10:33:05.377Z,5.70
2019-02-16T10:35:45.359Z,4.00
2019-02-16T10:38:37.541Z,4.87
2019-02-16T10:41:32.762Z,5.87
2019-02-16T10:44:21.016Z,5.53
2019-02-16T10:47:13.736Z,8.83
2019-02-16T10:50:01.869Z,5.87
2019-02-16T10:52:50.123Z,12.63
2019-02-16T10:55:51.729Z,12.07
2019-02-16T10:58:37.309Z,4.97
2019-02-16T11:01:23.762Z,4.43
2019-02-16T11:04:25.220Z,6.30
2019-02-16T11:07:05.241Z,4.93
2019-02-16T11:10:01.403Z,8.83
2019-02-16T11:12:56.938Z,5.57
2019-02-16T11:15:40.844Z,6.70
2019-02-16T11:18:23.101Z,5.33
2019-02-16T11:21:20.896Z,6.03
2019-02-16T11:24:12.267Z,4.57
2019-02-16T11:26:51.646Z,6.03
2019-02-16T11:29:39.358Z,7.60
2019-02-16T11:32:23.587Z,3.97
2019-02-16T11:35:12.415Z,4.93
2019-02-16T11:38:00.485Z,5.50
2019-02-16T11:40:37.743Z,5.23
2019-02-16T11:43:26.417Z,4.20
2019-02-16T11:46:28.054Z,5.10
2019-02-16T11:49:29.555Z,6.03
2019-02-16T11:52:22.734Z,5.83
2019-02-16T11:55:23.896Z,4.63
2019-02-16T11:58:25.363Z,6.90
2019-02-16T12:01:21.346Z,4.63
2019-02-16T12:04:13.041Z,3.83
2019-02-16T12:07:05.461Z,5.37
2019-02-16T12:10:01.693Z,5.17
2019-02-16T12:12:50.741Z,3.53
2019-02-16T12:15:43.486Z,4.43
2019-02-16T12:18:28.769Z,6.13
2019-02-16T12:21:27.863Z,5.03
2019-02-16T12:24:17.605Z,5.20
2019-02-16T12:27:09.802Z,4.80
2019-02-16T12:29:53.773Z,4.73
2019-02-16T12:32:39.712Z,7.57
2019-02-16T12:35:33.493Z,4.60
2019-02-16T12:38:19.558Z,5.07
2019-02-16T12:41:07.539Z,6.63
2019-02-16T12:43:56.906Z,6.80
2019-02-16T12:46:44.931Z,5.80
2019-02-16T12:49:38.031Z,4.07
2019-02-16T12:52:26.341Z,4.47
2019-02-16T12:55:15.717Z,7.57
2019-02-16T12:57:51.629Z,6.37
2019-02-16T13:00:44.036Z,5.33
2019-02-16T13:03:32.126Z,6.70
2019-02-16T13:06:16.605Z,7.17
2019-02-16T13:09:12.248Z,5.77
2019-02-16T13:12:01.088Z,5.97
2019-02-16T13:14:49.952Z,6.40
2019-02-16T13:17:46.723Z,6.37
2019-02-16T13:20:45.138Z,7.40
2019-02-16T13:23:31.822Z,5.33
2019-02-16T13:26:08.935Z,7.33
2019-02-16T13:28:54.149Z,8.17
2019-02-16T13:31:33.638Z,6.90
2019-02-16T13:34:19.257Z,6.20
2019-02-16T13:37:17.037Z,7.00
2019-02-16T13:40:08.957Z,7.23
2019-02-16T13:42:55.454Z,6.77
2019-02-16T13:45:45.736Z,7.63
2019-02-16T13:48:26.786Z,7.10
2019-02-16T13:51:18.418Z,7.07
2019-02-16T13:54:10.637Z,8.90
2019-02-16T13:56:58.865Z,11.00
2019-02-16T13:59:51.619Z,6.73
2019-02-16T14:02:39.246Z,7.67
2019-02-16T14:05:30.218Z,8.87
2019-02-16T14:08:18.772Z,7.67
2019-02-16T14:11:10.931Z,7.47
2019-02-16T14:13:50.462Z,7.07
2019-02-16T14:16:39.574Z,8.50
2019-02-16T14:19:10.397Z,7.47
2019-02-16T14:21:41.234Z,6.53
2019-02-16T14:24:11.774Z,9.03
2019-02-16T14:26:42.745Z,6.77
2019-02-16T14:29:13.296Z,6.73
2019-02-16T14:31:43.751Z,6.77
2019-02-16T14:34:14.506Z,7.67
2019-02-16T14:36:46.248Z,7.03
2019-02-16T14:39:21.401Z,7.35
2019-02-16T14:41:51.871Z,6.07
2019-02-16T14:44:22.674Z,7.53
2019-02-16T14:46:53.316Z,10.97
2019-02-16T14:54:52.423Z,5.93
2019-02-16T14:57:23.016Z,7.77
2019-02-16T14:59:53.723Z,7.00
2019-02-16T15:02:24.156Z,6.97
2019-02-16T15:04:55.954Z,6.30
2019-02-16T15:07:26.725Z,9.83
2019-02-16T15:09:57.577Z,6.83
2019-02-16T15:12:28.028Z,7.57
2019-02-16T15:14:58.464Z,6.87
2019-02-16T15:17:28.943Z,9.33
2019-02-16T15:19:59.798Z,7.97
2019-02-16T15:22:30.293Z,8.67
2019-02-16T15:25:01.133Z,6.83
2019-02-16T15:27:31.586Z,8.10
2019-02-16T15:30:02.342Z,6.20
2019-02-16T15:32:32.792Z,6.33
2019-02-16T15:35:03.281Z,10.15
2019-02-16T15:37:33.879Z,10.18
2019-02-16T15:40:04.733Z,11.23
2019-02-16T15:42:35.675Z,10.20
2019-02-16T15:45:07.978Z,9.37
2019-02-16T15:47:38.502Z,11.73
2019-02-16T15:50:10.334Z,8.87
2019-02-16T15:52:41.115Z,12.73
2019-02-16T15:55:12.462Z,8.93
2019-02-16T15:57:42.935Z,7.23
2019-02-16T16:00:20.454Z,7.83
2019-02-16T16:02:50.968Z,7.13
2019-02-16T16:05:21.697Z,9.00
2019-02-16T16:08:11.255Z,9.37
2019-02-16T16:10:56.624Z,6.67
2019-02-16T16:13:58.709Z,8.10
2019-02-16T16:16:46.690Z,7.03
2019-02-16T16:19:51.204Z,6.93
2019-02-16T16:22:41.512Z,6.80
2019-02-16T16:25:30.246Z,7.57
2019-02-16T16:28:25.445Z,5.43
2019-02-16T16:31:20.645Z,7.00
2019-02-16T16:34:06.021Z,7.10
2019-02-16T16:36:52.639Z,7.30
2019-02-16T16:40:00.515Z,7.20
2019-02-16T16:42:58.562Z,7.03
2019-02-16T16:45:39.611Z,6.87
2019-02-16T16:48:47.639Z,6.63
2019-02-16T16:51:39.625Z,9.23
2019-02-16T16:54:38.541Z,9.13
2019-02-16T16:57:22.577Z,6.67
2019-02-16T17:00:11.926Z,6.30
2019-02-16T17:02:59.862Z,9.13
2019-02-16T17:05:43.274Z,7.30
2019-02-16T17:08:36.344Z,8.10
2019-02-16T17:11:19.327Z,7.67
2019-02-16T17:14:00.490Z,10.73
2019-02-16T17:16:50.256Z,9.37
2019-02-16T17:19:40.380Z,10.30
2019-02-16T17:22:32.873Z,8.67
2019-02-16T17:25:19.717Z,8.77
2019-02-16T17:28:18.832Z,9.00
2019-02-16T17:31:00.244Z,13.63
2019-02-16T17:33:53.211Z,25.60
2019-02-16T17:36:33.438Z,27.10
2019-02-16T17:39:29.055Z,34.67
2019-02-16T17:42:19.320Z,24.83
2019-02-16T17:44:57.670Z,17.33
2019-02-16T17:47:45.932Z,8.83
2019-02-16T17:50:33.889Z,8.53
2019-02-16T17:53:23.768Z,9.57
2019-02-16T17:56:19.216Z,8.37
2019-02-16T17:59:02.233Z,7.87
2019-02-16T18:01:51.631Z,8.87
2019-02-16T18:04:57.383Z,9.83
2019-02-16T18:07:35.125Z,8.10
2019-02-16T18:10:14.965Z,9.60
2019-02-16T18:13:04.374Z,7.93
2019-02-16T18:16:06.743Z,9.30
2019-02-16T18:18:42.431Z,8.73
2019-02-16T18:21:34.118Z,9.67
2019-02-16T18:24:26.892Z,7.60
2019-02-16T18:27:19.932Z,8.67
2019-02-16T18:30:12.140Z,10.40
2019-02-16T18:33:07.976Z,9.23
2019-02-16T18:35:51.185Z,10.87
2019-02-16T18:38:40.417Z,9.40
2019-02-16T18:41:28.807Z,11.70
2019-02-16T18:44:16.831Z,12.13
2019-02-16T18:47:05.478Z,9.60
2019-02-16T18:49:50.019Z,11.73
2019-02-16T18:52:39.837Z,10.13
2019-02-16T18:55:49.808Z,11.03
2019-02-16T18:58:38.069Z,11.33
2019-02-16T19:01:32.812Z,11.03
2019-02-16T19:04:28.342Z,21.07
2019-02-16T19:07:13.471Z,21.20
2019-02-16T19:10:06.467Z,15.17
2019-02-16T19:12:57.484Z,17.33
2019-02-16T19:15:47.055Z,22.67
2019-02-16T19:18:38.621Z,11.47
2019-02-16T19:21:27.789Z,12.53
2019-02-16T19:24:20.003Z,18.63
2019-02-16T19:27:16.501Z,10.67
2019-02-16T19:30:07.622Z,12.67
2019-02-16T19:32:50.961Z,9.33
2019-02-16T19:35:49.473Z,9.27
2019-02-16T19:38:40.822Z,9.07
2019-02-16T19:41:29.165Z,11.83
2019-02-16T19:44:17.123Z,12.93
2019-02-16T19:46:55.885Z,14.10
2019-02-16T19:49:50.293Z,11.67
2019-02-16T19:52:31.553Z,15.10
2019-02-16T19:55:32.859Z,12.20
2019-02-16T19:58:22.646Z,10.23
2019-02-16T20:01:18.903Z,10.63
2019-02-16T20:04:16.227Z,15.10
2019-02-16T20:07:17.923Z,12.20
2019-02-16T20:09:57.689Z,11.73
2019-02-16T20:13:06.068Z,11.87
2019-02-16T20:15:56.295Z,11.23
2019-02-16T20:18:46.544Z,13.13
2019-02-16T20:21:42.230Z,10.77
2019-02-16T20:24:22.206Z,11.33
2019-02-16T20:27:14.629Z,10.47
2019-02-16T20:30:04.380Z,10.60
2019-02-16T20:32:59.888Z,12.83
2019-02-16T20:35:53.610Z,15.00
2019-02-16T20:38:49.865Z,14.97
2019-02-16T20:41:30.798Z,13.37
2019-02-16T20:44:21.195Z,13.80
2019-02-16T20:47:16.786Z,15.10
2019-02-16T20:50:06.565Z,12.40
2019-02-16T20:52:59.038Z,13.30
2019-02-16T20:55:50.764Z,12.50
2019-02-16T20:58:55.222Z,16.93
2019-02-16T21:01:51.487Z,12.60
2019-02-16T21:04:53.377Z,12.47
2019-02-16T21:07:41.749Z,14.87
2019-02-16T21:10:31.102Z,11.73
2019-02-16T21:13:05.557Z,14.60
2019-02-16T21:15:52.401Z,13.73
2019-02-16T21:18:42.956Z,13.30
2019-02-16T21:21:50.783Z,14.30
2019-02-16T21:24:40.439Z,12.83
2019-02-16T21:27:17.594Z,16.90
2019-02-16T21:30:23.765Z,14.13
2019-02-16T21:33:02.497Z,12.50
2019-02-16T21:35:53.772Z,15.77
2019-02-16T21:38:42.269Z,14.53
2019-02-16T21:41:28.201Z,15.63
2019-02-16T21:44:20.650Z,13.30
2019-02-16T21:47:28.610Z,15.50
2019-02-16T21:50:17.074Z,14.00
2019-02-16T21:53:05.394Z,12.47
2019-02-16T21:55:54.818Z,14.83
2019-02-16T21:58:52.075Z,13.67
2019-02-16T22:01:42.606Z,12.90
2019-02-16T22:04:38.416Z,15.87
2019-02-16T22:07:25.530Z,16.33
2019-02-16T22:10:24.082Z,15.80
2019-02-16T22:13:05.700Z,14.40
2019-02-16T22:15:36.256Z,14.73
2019-02-16T22:18:06.725Z,15.43
2019-02-16T22:20:37.220Z,16.30
2019-02-16T22:23:07.667Z,16.17
2019-02-16T22:25:38.116Z,13.23
2019-02-16T22:28:18.291Z,17.67
2019-02-16T22:30:41.196Z,15.33
2019-02-16T22:33:11.642Z,14.67
2019-02-16T22:35:42.129Z,16.10
2019-02-16T22:38:12.738Z,15.90
2019-02-16T22:40:43.182Z,16.33
2019-02-16T22:43:13.674Z,16.40
2019-02-16T22:45:44.122Z,14.50
2019-02-16T22:48:14.566Z,16.43
2019-02-16T22:50:45.159Z,14.43
2019-02-16T22:53:15.607Z,16.07
2019-02-16T22:55:46.056Z,18.13
2019-02-16T22:58:16.547Z,15.17
2019-02-16T23:00:50.314Z,14.80
2019-02-16T23:03:20.867Z,14.40
2019-02-16T23:05:51.381Z,17.20
2019-02-16T23:08:21.831Z,15.40
2019-02-16T23:10:52.365Z,16.97
2019-02-16T23:13:22.860Z,14.77
2019-02-16T23:15:53.474Z,15.30
2019-02-16T23:18:23.923Z,17.90
2019-02-16T23:20:54.420Z,17.43
2019-02-16T23:23:24.873Z,19.63
2019-02-16T23:25:55.483Z,18.57
2019-02-16T23:28:25.979Z,17.93
2019-02-16T23:30:56.812Z,19.77
2019-02-16T23:33:27.608Z,21.47
2019-02-16T23:35:58.431Z,18.50
2019-02-16T23:38:29.195Z,17.87
2019-02-16T23:40:59.648Z,18.90
2019-02-16T23:43:30.137Z,16.37
2019-02-16T23:46:00.586Z,19.33
2019-02-16T23:48:31.033Z,24.17
2019-02-16T23:51:01.534Z,16.53
2019-02-16T23:53:31.994Z,18.70
2019-02-16T23:56:03.474Z,17.03
2019-02-16T23:58:33.913Z,21.00
